createdAt,value
2019-05-12T00:00:20.892Z,3.40
2019-05-12T00:02:49.577Z,2.95
2019-05-12T00:05:18.690Z,3.40
2019-05-12T00:07:48.844Z,3.77
2019-05-12T00:10:18.033Z,3.30
2019-05-12T00:12:48.291Z,3.17
2019-05-12T00:15:19.351Z,2.90
2019-05-12T00:17:48.347Z,3.50
2019-05-12T00:20:18.151Z,2.87
2019-05-12T00:22:48.844Z,3.60
2019-05-12T00:25:18.240Z,3.52
2019-05-12T00:27:48.541Z,3.40
2019-05-12T00:30:34.017Z,3.20
2019-05-12T00:33:03.473Z,3.30
2019-05-12T00:35:31.913Z,3.60
2019-05-12T00:38:00.421Z,3.30
2019-05-12T00:40:28.996Z,3.15
2019-05-12T00:42:57.890Z,3.55
2019-05-12T00:45:28.934Z,3.65
2019-05-12T00:47:58.216Z,4.00
2019-05-12T00:50:28.890Z,3.87
2019-05-12T00:52:57.925Z,3.93
2019-05-12T00:55:28.772Z,3.33
2019-05-12T00:57:58.224Z,4.20
2019-05-12T01:00:29.425Z,3.60
2019-05-12T01:02:58.217Z,3.73
2019-05-12T01:05:29.147Z,4.00
2019-05-12T01:07:58.235Z,3.50
2019-05-12T01:10:28.554Z,3.72
2019-05-12T01:12:58.211Z,4.10
2019-05-12T01:15:28.751Z,3.67
2019-05-12T01:17:58.552Z,3.50
2019-05-12T01:20:28.343Z,3.72
2019-05-12T01:22:57.872Z,4.42
2019-05-12T01:25:28.717Z,3.90
2019-05-12T01:27:58.882Z,3.75
2019-05-12T01:30:28.478Z,3.70
2019-05-12T01:32:58.074Z,3.80
2019-05-12T01:35:28.456Z,4.00
2019-05-12T01:38:01.045Z,3.83
2019-05-12T01:40:28.724Z,4.00
2019-05-12T01:42:58.151Z,3.60
2019-05-12T01:45:28.755Z,4.45
2019-05-12T01:47:59.148Z,4.47
2019-05-12T01:50:28.391Z,4.35
2019-05-12T01:52:58.738Z,4.10
2019-05-12T01:55:28.056Z,4.25
2019-05-12T01:57:57.689Z,4.60
2019-05-12T02:00:28.479Z,3.98
2019-05-12T02:02:58.419Z,4.40
2019-05-12T02:05:27.942Z,4.70
2019-05-12T02:07:58.581Z,4.40
2019-05-12T02:10:28.656Z,5.13
2019-05-12T02:12:59.337Z,3.90
2019-05-12T02:15:27.979Z,4.65
2019-05-12T02:17:58.855Z,4.42
2019-05-12T02:20:28.852Z,4.60
2019-05-12T02:22:58.373Z,4.97
2019-05-12T02:25:28.736Z,4.70
2019-05-12T02:27:58.318Z,4.67
2019-05-12T02:30:30.469Z,4.70
2019-05-12T02:32:59.002Z,4.40
2019-05-12T02:35:27.374Z,5.10
2019-05-12T02:37:55.858Z,4.50
2019-05-12T02:40:25.200Z,4.50
2019-05-12T02:42:54.876Z,4.35
2019-05-12T02:45:25.230Z,4.47
2019-05-12T02:47:54.449Z,4.47
2019-05-12T02:50:34.877Z,4.20
2019-05-12T02:53:04.893Z,4.80
2019-05-12T02:55:34.885Z,4.03
2019-05-12T02:58:05.074Z,4.27
2019-05-12T03:00:35.247Z,3.98
2019-05-12T03:03:07.362Z,3.80
2019-05-12T03:05:36.627Z,4.30
2019-05-12T03:08:05.327Z,4.30
2019-05-12T03:10:35.676Z,4.20
2019-05-12T03:13:04.616Z,4.12
2019-05-12T03:15:36.566Z,3.72
2019-05-12T03:18:06.272Z,4.53
2019-05-12T03:20:35.306Z,4.00
2019-05-12T03:23:06.041Z,4.25
2019-05-12T03:25:35.686Z,4.20
2019-05-12T03:28:08.221Z,4.03
2019-05-12T03:30:38.140Z,3.55
2019-05-12T03:33:09.597Z,4.00
2019-05-12T03:35:42.580Z,3.50
2019-05-12T03:38:05.398Z,3.95
2019-05-12T03:40:37.630Z,4.20
2019-05-12T03:43:05.456Z,3.90
2019-05-12T03:45:35.861Z,3.60
2019-05-12T03:48:04.998Z,3.40
2019-05-12T03:50:35.354Z,3.55
2019-05-12T03:53:09.521Z,3.33
2019-05-12T03:55:38.103Z,3.92
2019-05-12T03:58:04.876Z,3.25
2019-05-12T04:00:35.743Z,3.90
2019-05-12T04:03:04.831Z,3.62
2019-05-12T04:05:35.151Z,3.52
2019-05-12T04:08:05.474Z,3.33
2019-05-12T04:10:36.097Z,3.25
2019-05-12T04:13:05.192Z,3.58
2019-05-12T04:15:35.033Z,3.40
2019-05-12T04:18:05.366Z,3.77
2019-05-12T04:20:35.602Z,4.08
2019-05-12T04:23:06.049Z,3.30
2019-05-12T04:25:47.915Z,3.40
2019-05-12T04:28:04.998Z,3.60
2019-05-12T04:30:35.443Z,3.60
2019-05-12T04:33:04.952Z,3.43
2019-05-12T04:35:35.281Z,3.70
2019-05-12T04:38:04.900Z,3.37
2019-05-12T04:40:35.771Z,3.50
2019-05-12T04:43:05.878Z,3.87
2019-05-12T04:45:35.438Z,2.93
2019-05-12T04:48:05.405Z,3.50
2019-05-12T04:50:35.586Z,3.22
2019-05-12T04:53:06.209Z,3.20
2019-05-12T04:55:35.963Z,2.72
2019-05-12T04:58:05.133Z,2.87
2019-05-12T05:00:34.794Z,3.20
2019-05-12T05:03:05.311Z,3.10
2019-05-12T05:05:35.719Z,2.98
2019-05-12T05:08:04.775Z,2.80
2019-05-12T05:10:34.281Z,3.27
2019-05-12T05:13:05.060Z,3.40
2019-05-12T05:15:34.889Z,2.70
2019-05-12T05:18:06.282Z,3.10
2019-05-12T05:20:34.468Z,3.40
2019-05-12T05:23:03.928Z,2.67
2019-05-12T05:25:34.383Z,2.90
2019-05-12T05:28:04.063Z,2.80
2019-05-12T05:30:33.989Z,2.33
2019-05-12T05:33:04.618Z,3.10
2019-05-12T05:35:39.244Z,3.17
2019-05-12T05:38:04.868Z,3.08
2019-05-12T05:40:35.739Z,2.60
2019-05-12T05:43:12.219Z,2.55
2019-05-12T05:45:35.226Z,3.10
2019-05-12T05:48:08.163Z,2.60
2019-05-12T05:50:34.505Z,2.55
2019-05-12T05:53:03.861Z,3.10
2019-05-12T05:55:34.432Z,2.60
2019-05-12T05:58:07.804Z,2.60
2019-05-12T06:00:35.053Z,2.60
2019-05-12T06:03:05.345Z,2.60
2019-05-12T06:05:34.658Z,3.10
2019-05-12T06:08:04.341Z,2.75
2019-05-12T06:10:36.295Z,2.62
2019-05-12T06:13:04.040Z,2.98
2019-05-12T06:15:35.882Z,2.60
2019-05-12T06:18:03.593Z,2.70
2019-05-12T06:20:37.557Z,2.87
2019-05-12T06:23:04.306Z,2.20
2019-05-12T06:25:45.617Z,2.65
2019-05-12T06:28:06.381Z,2.10
2019-05-12T06:30:35.839Z,2.40
2019-05-12T06:33:04.396Z,2.87
2019-05-12T06:35:37.411Z,2.50
2019-05-12T06:38:05.097Z,2.60
2019-05-12T06:40:40.405Z,2.60
2019-05-12T06:43:04.387Z,3.70
2019-05-12T06:45:39.657Z,2.65
2019-05-12T06:48:03.572Z,2.55
2019-05-12T06:50:37.029Z,2.60
2019-05-12T06:53:04.720Z,3.00
2019-05-12T06:55:36.663Z,2.50
2019-05-12T06:58:04.746Z,2.40
2019-05-12T07:00:34.886Z,2.83
2019-05-12T07:03:03.978Z,2.92
2019-05-12T07:05:38.068Z,2.80
2019-05-12T07:08:04.351Z,2.50
2019-05-12T07:10:41.620Z,2.60
2019-05-12T07:13:05.446Z,3.00
2019-05-12T07:15:35.668Z,2.70
2019-05-12T07:18:10.753Z,2.77
2019-05-12T07:20:39.525Z,2.60
2019-05-12T07:23:08.048Z,2.85
2019-05-12T07:25:36.975Z,2.30
2019-05-12T07:28:07.761Z,3.27
2019-05-12T07:30:35.624Z,2.22
2019-05-12T07:33:04.564Z,2.50
2019-05-12T07:35:34.122Z,3.17
2019-05-12T07:38:04.557Z,2.98
2019-05-12T07:40:36.732Z,2.80
2019-05-12T07:43:04.278Z,2.70
2019-05-12T07:45:33.974Z,2.70
2019-05-12T07:48:07.737Z,3.00
2019-05-12T07:50:34.471Z,2.90
2019-05-12T07:53:04.120Z,2.87
2019-05-12T07:55:34.037Z,2.40
2019-05-12T07:58:13.835Z,3.00
2019-05-12T08:00:34.207Z,2.27
2019-05-12T08:03:08.076Z,2.30
2019-05-12T08:05:33.737Z,2.50
2019-05-12T08:08:08.722Z,2.27
2019-05-12T08:10:34.258Z,2.50
2019-05-12T08:13:04.487Z,2.20
2019-05-12T08:15:33.950Z,2.80
2019-05-12T08:18:07.609Z,2.50
2019-05-12T08:20:34.367Z,2.20
2019-05-12T08:23:05.911Z,2.45
2019-05-12T08:25:34.918Z,1.90
2019-05-12T08:28:14.905Z,2.10
2019-05-12T08:30:40.322Z,2.50
2019-05-12T08:33:09.483Z,2.30
2019-05-12T08:35:38.512Z,2.30
2019-05-12T08:38:07.185Z,2.00
2019-05-12T08:40:39.721Z,2.40
2019-05-12T08:43:10.225Z,2.30
2019-05-12T08:45:37.538Z,2.05
2019-05-12T08:48:10.327Z,1.90
2019-05-12T08:50:36.359Z,1.95
2019-05-12T08:53:04.956Z,2.10
2019-05-12T08:55:35.856Z,1.80
2019-05-12T08:58:04.013Z,2.50
2019-05-12T09:00:39.555Z,2.20
2019-05-12T09:03:05.954Z,2.55
2019-05-12T09:05:38.306Z,2.37
2019-05-12T09:08:04.615Z,2.27
2019-05-12T09:10:34.399Z,2.30
2019-05-12T09:13:04.088Z,1.90
2019-05-12T09:15:34.622Z,1.80
2019-05-12T09:18:04.740Z,2.00
2019-05-12T09:20:33.949Z,1.90
2019-05-12T09:23:04.688Z,2.03
2019-05-12T09:25:34.103Z,1.90
2019-05-12T09:28:03.783Z,1.87
2019-05-12T09:30:33.695Z,1.90
2019-05-12T09:33:04.146Z,2.08
2019-05-12T09:35:34.931Z,2.12
2019-05-12T09:38:05.756Z,1.70
2019-05-12T09:40:35.625Z,1.70
2019-05-12T09:43:08.632Z,1.90
2019-05-12T09:45:34.226Z,2.08
2019-05-12T09:48:04.956Z,1.70
2019-05-12T09:50:34.100Z,1.80
2019-05-12T09:53:09.294Z,1.87
2019-05-12T09:55:34.278Z,1.83
2019-05-12T09:58:03.950Z,1.60
2019-05-12T10:00:35.795Z,1.40
2019-05-12T10:03:04.800Z,1.55
2019-05-12T10:05:39.185Z,1.67
2019-05-12T10:08:04.578Z,1.70
2019-05-12T10:10:35.444Z,1.45
2019-05-12T10:13:04.774Z,1.20
2019-05-12T10:15:33.501Z,1.30
2019-05-12T10:18:08.929Z,1.40
2019-05-12T10:20:35.283Z,1.67
2019-05-12T10:23:04.293Z,1.80
2019-05-12T10:25:33.985Z,1.95
2019-05-12T10:28:11.057Z,2.10
2019-05-12T10:30:34.231Z,2.10
2019-05-12T10:33:03.687Z,2.30
2019-05-12T10:35:34.677Z,1.37
2019-05-12T10:38:08.568Z,1.30
2019-05-12T10:40:33.811Z,1.60
2019-05-12T10:43:04.437Z,1.95
2019-05-12T10:45:33.933Z,2.13
2019-05-12T10:48:03.589Z,1.83
2019-05-12T10:50:34.176Z,1.80
2019-05-12T10:53:04.677Z,2.15
2019-05-12T10:55:33.527Z,1.90
2019-05-12T10:58:06.555Z,1.45
2019-05-12T11:00:33.742Z,1.72
2019-05-12T11:03:10.206Z,2.00
2019-05-12T11:05:33.993Z,1.80
2019-05-12T11:08:06.507Z,2.05
2019-05-12T11:10:32.954Z,2.22
2019-05-12T11:13:05.804Z,2.20
2019-05-12T11:15:33.937Z,2.00
2019-05-12T11:18:03.392Z,2.00
2019-05-12T11:20:34.049Z,1.90
2019-05-12T11:23:03.495Z,2.00
2019-05-12T11:25:34.004Z,1.98
2019-05-12T11:28:03.724Z,1.90
2019-05-12T11:30:34.280Z,2.08
2019-05-12T11:33:04.440Z,1.90
2019-05-12T11:35:33.777Z,1.87
2019-05-12T11:38:04.156Z,2.10
2019-05-12T11:40:34.373Z,2.10
2019-05-12T11:43:04.254Z,2.17
2019-05-12T11:45:33.625Z,1.60
2019-05-12T11:48:05.929Z,1.50
2019-05-12T11:50:32.718Z,2.25
2019-05-12T11:53:01.143Z,1.95
2019-05-12T11:55:31.666Z,2.30
2019-05-12T11:58:00.454Z,1.90
2019-05-12T12:00:33.463Z,1.90
2019-05-12T12:03:03.667Z,1.60
2019-05-12T12:05:33.838Z,1.80
2019-05-12T12:08:04.106Z,1.80
2019-05-12T12:10:35.522Z,1.60
2019-05-12T12:13:03.688Z,1.90
2019-05-12T12:15:34.249Z,2.00
2019-05-12T12:18:03.909Z,1.98
2019-05-12T12:20:33.827Z,1.87
2019-05-12T12:23:06.464Z,1.60
2019-05-12T12:25:34.224Z,1.75
2019-05-12T12:28:04.384Z,1.70
2019-05-12T12:30:33.902Z,1.70
2019-05-12T12:33:03.983Z,2.00
2019-05-12T12:35:34.620Z,1.70
2019-05-12T12:38:03.748Z,1.50
2019-05-12T12:40:32.525Z,2.10
2019-05-12T12:43:04.077Z,1.80
2019-05-12T12:45:40.292Z,1.80
2019-05-12T12:48:07.310Z,1.80
2019-05-12T12:50:35.738Z,1.70
2019-05-12T12:53:04.225Z,1.90
2019-05-12T12:55:32.672Z,1.80
2019-05-12T12:58:02.826Z,1.70
2019-05-12T13:00:45.460Z,1.90
2019-05-12T13:03:03.560Z,1.72
2019-05-12T13:05:34.352Z,2.00
2019-05-12T13:08:04.093Z,2.27
2019-05-12T13:10:33.733Z,1.70
2019-05-12T13:13:04.074Z,2.20
2019-05-12T13:15:33.999Z,1.90
2019-05-12T13:18:02.614Z,1.70
2019-05-12T13:20:31.033Z,1.50
2019-05-12T13:22:59.466Z,1.90
2019-05-12T13:25:27.890Z,1.90
2019-05-12T13:27:56.312Z,1.60
2019-05-12T13:30:24.741Z,1.40
2019-05-12T13:32:53.161Z,1.65
2019-05-12T13:35:23.628Z,1.60
2019-05-12T13:37:56.553Z,2.03
2019-05-12T13:40:23.402Z,1.55
2019-05-12T13:42:54.281Z,2.02
2019-05-12T13:45:24.121Z,1.90
2019-05-12T13:47:53.397Z,1.90
2019-05-12T13:50:26.277Z,1.80
2019-05-12T13:52:54.210Z,1.60
2019-05-12T13:55:23.991Z,2.00
2019-05-12T13:57:57.746Z,1.60
2019-05-12T14:00:22.674Z,1.55
2019-05-12T14:02:55.497Z,1.82
2019-05-12T14:05:21.342Z,2.10
2019-05-12T14:07:54.838Z,1.90
2019-05-12T14:10:19.955Z,1.70
2019-05-12T14:12:48.405Z,1.50
2019-05-12T14:15:17.039Z,1.62
2019-05-12T14:17:45.538Z,1.42
2019-05-12T14:20:19.947Z,1.90
2019-05-12T14:22:44.966Z,1.52
2019-05-12T14:25:15.209Z,2.00
2019-05-12T14:27:44.329Z,2.15
2019-05-12T14:30:14.433Z,1.90
2019-05-12T14:32:43.955Z,1.40
2019-05-12T14:35:12.762Z,1.70
2019-05-12T14:37:46.000Z,1.40
2019-05-12T14:40:13.378Z,2.10
2019-05-12T14:42:43.970Z,1.77
2019-05-12T14:45:13.795Z,1.40
2019-05-12T14:47:43.672Z,1.30
2019-05-12T14:50:14.114Z,1.85
2019-05-12T14:52:43.915Z,1.50
2019-05-12T14:55:13.869Z,1.60
2019-05-12T14:57:42.511Z,1.60
2019-05-12T15:00:19.238Z,1.52
2019-05-12T15:02:43.697Z,1.90
2019-05-12T15:05:14.373Z,1.97
2019-05-12T15:07:51.198Z,2.00
2019-05-12T15:10:14.403Z,1.90
2019-05-12T15:12:44.179Z,1.90
2019-05-12T15:15:18.328Z,1.40
2019-05-12T15:17:44.417Z,1.60
2019-05-12T15:20:13.880Z,1.95
2019-05-12T15:22:51.341Z,1.70
2019-05-12T15:25:14.590Z,2.20
2019-05-12T15:27:46.017Z,2.40
2019-05-12T15:30:22.928Z,2.10
2019-05-12T15:32:43.617Z,2.00
2019-05-12T15:35:13.812Z,1.80
2019-05-12T15:37:43.601Z,2.20
2019-05-12T15:40:14.621Z,1.85
2019-05-12T15:42:44.950Z,2.10
2019-05-12T15:45:16.517Z,2.20
2019-05-12T15:47:44.616Z,2.05
2019-05-12T15:50:14.769Z,2.05
2019-05-12T15:52:45.679Z,2.05
2019-05-12T15:55:17.894Z,2.05
2019-05-12T15:57:44.669Z,1.90
2019-05-12T16:00:16.545Z,1.80
2019-05-12T16:02:44.252Z,2.12
2019-05-12T16:05:14.684Z,1.57
2019-05-12T16:07:44.169Z,2.40
2019-05-12T16:10:14.694Z,2.10
2019-05-12T16:12:43.640Z,2.10
2019-05-12T16:15:17.074Z,1.70
2019-05-12T16:17:44.043Z,1.80
2019-05-12T16:20:14.184Z,1.60
2019-05-12T16:22:45.202Z,1.40
2019-05-12T16:25:15.163Z,1.90
2019-05-12T16:27:44.406Z,1.87
2019-05-12T16:30:13.943Z,2.00
2019-05-12T16:32:47.288Z,1.70
2019-05-12T16:35:14.496Z,1.92
2019-05-12T16:37:44.319Z,2.10
2019-05-12T16:40:13.937Z,1.90
2019-05-12T16:42:48.263Z,1.80
2019-05-12T16:45:14.575Z,1.77
2019-05-12T16:47:44.811Z,1.50
2019-05-12T16:50:19.672Z,1.87
2019-05-12T16:52:45.483Z,1.87
2019-05-12T16:55:14.368Z,1.70
2019-05-12T16:57:51.232Z,2.30
2019-05-12T17:00:14.087Z,2.30
2019-05-12T17:02:51.910Z,2.37
2019-05-12T17:05:20.028Z,1.60
2019-05-12T17:07:44.119Z,1.92
2019-05-12T17:10:16.660Z,1.92
2019-05-12T17:12:44.043Z,1.67
2019-05-12T17:15:14.950Z,1.60
2019-05-12T17:17:44.767Z,2.30
2019-05-12T17:20:14.483Z,1.80
2019-05-12T17:22:45.386Z,1.72
2019-05-12T17:25:15.384Z,2.00
2019-05-12T17:27:44.911Z,2.10
2019-05-12T17:30:14.214Z,2.00
2019-05-12T17:32:57.607Z,2.00
2019-05-12T17:35:14.716Z,2.10
2019-05-12T17:37:43.452Z,2.00
2019-05-12T17:40:15.597Z,2.33
2019-05-12T17:42:44.090Z,2.20
2019-05-12T17:45:15.863Z,2.20
2019-05-12T17:47:44.558Z,2.20
2019-05-12T17:50:13.679Z,2.85
2019-05-12T17:52:44.147Z,2.97
2019-05-12T17:55:14.509Z,2.20
2019-05-12T17:57:43.932Z,2.10
2019-05-12T18:00:14.561Z,2.27
2019-05-12T18:02:43.998Z,2.17
2019-05-12T18:05:15.610Z,2.12
2019-05-12T18:07:44.655Z,1.77
2019-05-12T18:10:13.998Z,2.20
2019-05-12T18:12:45.156Z,1.60
2019-05-12T18:15:15.181Z,2.33
2019-05-12T18:17:49.433Z,2.47
2019-05-12T18:20:15.041Z,2.25
2019-05-12T18:22:45.080Z,2.33
2019-05-12T18:25:14.861Z,2.00
2019-05-12T18:27:50.176Z,2.10
2019-05-12T18:30:18.185Z,2.52
2019-05-12T18:32:44.384Z,2.33
2019-05-12T18:35:13.661Z,2.50
2019-05-12T18:37:42.300Z,2.50
2019-05-12T18:40:10.882Z,2.10
2019-05-12T18:42:39.301Z,2.30
2019-05-12T18:45:12.303Z,2.40
2019-05-12T18:47:38.580Z,2.80
2019-05-12T18:50:07.265Z,2.50
2019-05-12T18:52:42.680Z,3.17
2019-05-12T18:55:06.395Z,2.33
2019-05-12T18:57:39.094Z,3.00
2019-05-12T19:00:08.312Z,2.40
2019-05-12T19:02:36.991Z,2.27
2019-05-12T19:05:06.317Z,2.58
2019-05-12T19:07:39.695Z,2.70
2019-05-12T19:10:07.044Z,2.25
2019-05-12T19:12:35.816Z,2.45
2019-05-12T19:15:10.360Z,2.40
2019-05-12T19:17:37.177Z,2.62
2019-05-12T19:20:07.063Z,2.35
2019-05-12T19:22:39.446Z,2.65
2019-05-12T19:25:07.168Z,2.72
2019-05-12T19:27:35.854Z,2.80
2019-05-12T19:30:05.424Z,2.53
2019-05-12T19:32:36.773Z,2.90
2019-05-12T19:35:09.315Z,2.33
2019-05-12T19:37:35.634Z,2.70
2019-05-12T19:40:12.452Z,2.50
2019-05-12T19:42:36.633Z,3.30
2019-05-12T19:45:16.343Z,2.77
2019-05-12T19:47:38.517Z,3.12
2019-05-12T19:50:11.166Z,2.75
2019-05-12T19:52:38.506Z,2.75
2019-05-12T19:55:07.467Z,2.60
2019-05-12T19:57:35.886Z,2.90
2019-05-12T20:00:06.119Z,2.30
2019-05-12T20:02:34.544Z,2.35
2019-05-12T20:05:04.699Z,3.25
2019-05-12T20:07:33.835Z,3.02
2019-05-12T20:10:04.575Z,2.90
2019-05-12T20:12:34.316Z,2.75
2019-05-12T20:15:04.043Z,2.90
2019-05-12T20:17:33.934Z,3.27
2019-05-12T20:20:04.683Z,3.00
2019-05-12T20:22:33.452Z,3.00
2019-05-12T20:25:04.184Z,2.92
2019-05-12T20:27:34.336Z,3.30
2019-05-12T20:30:09.364Z,3.20
2019-05-12T20:32:34.398Z,3.20
2019-05-12T20:35:04.215Z,3.10
2019-05-12T20:37:33.731Z,3.27
2019-05-12T20:40:05.242Z,3.17
2019-05-12T20:42:42.477Z,3.50
2019-05-12T20:45:08.477Z,2.92
2019-05-12T20:47:39.200Z,3.30
2019-05-12T20:50:08.658Z,3.60
2019-05-12T20:52:39.480Z,3.80
2019-05-12T20:55:07.337Z,3.65
2019-05-12T20:57:40.102Z,3.42
2019-05-12T21:00:08.618Z,2.95
2019-05-12T21:02:37.256Z,3.25
2019-05-12T21:05:14.430Z,3.72
2019-05-12T21:07:37.366Z,3.47
2019-05-12T21:10:07.431Z,3.22
2019-05-12T21:12:40.219Z,3.02
2019-05-12T21:15:16.511Z,3.02
2019-05-12T21:17:43.027Z,3.12
2019-05-12T21:20:11.639Z,3.65
2019-05-12T21:22:38.996Z,3.00
2019-05-12T21:25:10.489Z,3.90
2019-05-12T21:27:38.286Z,3.12
2019-05-12T21:30:11.726Z,3.65
2019-05-12T21:32:38.649Z,4.10
2019-05-12T21:35:18.463Z,4.47
2019-05-12T21:37:45.741Z,3.50
2019-05-12T21:40:08.148Z,4.10
2019-05-12T21:42:36.572Z,3.42
2019-05-12T21:45:05.840Z,3.60
2019-05-12T21:47:42.643Z,3.93
2019-05-12T21:50:05.637Z,3.92
2019-05-12T21:52:39.078Z,3.70
2019-05-12T21:55:06.348Z,3.60
2019-05-12T21:57:35.403Z,3.47
2019-05-12T22:00:15.925Z,3.98
2019-05-12T22:02:41.588Z,3.20
2019-05-12T22:05:16.306Z,4.00
2019-05-12T22:07:40.232Z,4.08
2019-05-12T22:10:08.849Z,3.60
2019-05-12T22:12:37.282Z,3.50
2019-05-12T22:15:11.396Z,3.62
2019-05-12T22:17:55.586Z,3.85
2019-05-12T22:20:24.003Z,3.30
2019-05-12T22:22:52.444Z,3.75
2019-05-12T22:25:20.880Z,3.80
2019-05-12T22:27:49.324Z,3.40
2019-05-12T22:30:17.749Z,4.10
2019-05-12T22:32:46.425Z,3.60
2019-05-12T22:35:21.615Z,3.62
2019-05-12T22:37:45.545Z,3.80
2019-05-12T22:40:17.504Z,3.40
2019-05-12T22:42:44.573Z,3.40
2019-05-12T22:45:15.331Z,3.90
2019-05-12T22:47:44.015Z,3.80
2019-05-12T22:50:13.565Z,3.13
2019-05-12T22:52:47.263Z,3.40
2019-05-12T22:55:13.978Z,3.67
2019-05-12T22:57:43.505Z,3.70
2019-05-12T23:00:13.497Z,3.70
2019-05-12T23:02:44.648Z,3.45
2019-05-12T23:05:16.804Z,3.50
2019-05-12T23:07:43.993Z,3.80
2019-05-12T23:10:14.286Z,3.90
2019-05-12T23:12:44.680Z,4.00
2019-05-12T23:15:14.096Z,3.67
2019-05-12T23:17:45.315Z,3.60
2019-05-12T23:20:14.051Z,4.75
2019-05-12T23:22:43.775Z,3.50
2019-05-12T23:25:20.120Z,4.07
2019-05-12T23:27:44.201Z,3.80
2019-05-12T23:30:15.740Z,3.85
2019-05-12T23:32:51.345Z,4.00
2019-05-12T23:35:14.596Z,3.70
2019-05-12T23:37:44.109Z,5.67
2019-05-12T23:40:16.673Z,3.70
2019-05-12T23:42:44.579Z,4.15
2019-05-12T23:45:13.923Z,3.80
2019-05-12T23:47:44.053Z,4.00
2019-05-12T23:50:14.209Z,3.95
2019-05-12T23:52:43.999Z,3.80
2019-05-12T23:55:13.736Z,4.30
2019-05-12T23:57:44.474Z,4.33
